Time;durP1;ratioP1;P1;durP2;ratioP2;P2;SDS_P1;SDS_P2;PMS_P1;PMS_P2;Temp;Humidity;BMP_temperature;BMP_pressure;BME280_temperature;BME280_humidity;BME280_pressure;Samples;Min_cycle;Max_cycle;Signal;HPM_P1;HPM_P2
2022/07/26 00:03:25;;;;;;;4.80;4.40;;;25.90;65.50;;;;;;10535647;28;20333;-81
2022/07/26 00:08:28;;;;;;;3.93;3.60;;;25.90;66.30;;;;;;10539657;28;20238;-81
2022/07/26 00:13:30;;;;;;;3.43;3.33;;;25.90;65.40;;;;;;10549480;28;20215;-81
2022/07/26 00:18:33;;;;;;;3.87;3.60;;;25.90;67.70;;;;;;10551700;28;20702;-81
2022/07/26 00:23:36;;;;;;;4.10;3.80;;;25.90;65.80;;;;;;10562216;28;20714;-81
2022/07/26 00:28:40;;;;;;;3.93;3.60;;;25.90;67.90;;;;;;10541883;28;20203;-81
2022/07/26 00:33:42;;;;;;;4.00;3.70;;;25.90;66.70;;;;;;10543971;28;20214;-81
2022/07/26 00:38:45;;;;;;;3.90;3.70;;;26.00;67.90;;;;;;10560629;28;20716;-81
2022/07/26 00:43:55;;;;;;;5.50;4.10;;;26.00;65.10;;;;;;10566392;28;20250;-81
2022/07/26 00:48:58;;;;;;;5.30;3.50;;;25.90;64.60;;;;;;10554382;28;20199;-81
2022/07/26 00:54:01;;;;;;;4.00;3.60;;;25.90;65.70;;;;;;10549962;28;20235;-81
2022/07/26 00:59:03;;;;;;;4.00;3.60;;;25.90;66.30;;;;;;10549266;28;20245;-81
2022/07/26 01:04:06;;;;;;;4.30;4.10;;;25.90;65.10;;;;;;10470964;22;20253;-78
2022/07/26 01:09:10;;;;;;;3.97;3.77;;;25.90;65.50;;;;;;10454699;28;20236;-78
2022/07/26 01:14:12;;;;;;;3.73;3.43;;;25.90;65.60;;;;;;10453666;28;20221;-80
2022/07/26 01:19:14;;;;;;;4.00;3.80;;;25.80;66.30;;;;;;10453602;28;20233;-78
2022/07/26 01:24:18;;;;;;;3.83;3.63;;;25.80;68.30;;;;;;10456263;28;20575;-77
2022/07/26 01:29:20;;;;;;;4.50;4.10;;;25.70;70.20;;;;;;10454225;28;20206;-77
2022/07/26 01:34:22;;;;;;;4.10;3.80;;;25.50;72.70;;;;;;10453889;28;20253;-79
2022/07/26 01:39:26;;;;;;;4.77;3.67;;;25.30;73.50;;;;;;10459136;28;20215;-79
2022/07/26 01:44:28;;;;;;;4.20;3.90;;;25.10;75.10;;;;;;10459834;28;20225;-79
2022/07/26 01:49:30;;;;;;;3.87;3.60;;;25.00;76.50;;;;;;10459022;28;20205;-78
2022/07/26 01:54:33;;;;;;;3.80;3.60;;;24.90;76.70;;;;;;10459970;28;20217;-78
2022/07/26 01:59:35;;;;;;;4.50;3.93;;;24.80;77.30;;;;;;10459614;28;20247;-78
2022/07/26 02:10:00;;;;;;;4.17;3.97;;;24.80;77.30;;;;;;10458674;28;20284;-78
2022/07/26 02:15:02;;;;;;;3.80;3.60;;;24.80;76.60;;;;;;10459611;28;20262;-81
2022/07/26 02:20:06;;;;;;;4.20;4.00;;;24.80;76.20;;;;;;10460035;28;20205;-80
2022/07/26 02:25:10;;;;;;;4.73;4.43;;;24.80;76.10;;;;;;10458982;28;20288;-79
2022/07/26 02:30:12;;;;;;;3.77;3.43;;;24.80;75.40;;;;;;10460659;28;20214;-78
2022/07/26 02:35:15;;;;;;;3.30;3.10;;;24.80;75.40;;;;;;10437271;28;20208;-79
2022/07/26 02:40:18;;;;;;;3.67;3.57;;;24.80;75.70;;;;;;10447095;28;20224;-79
2022/07/26 02:45:21;;;;;;;3.83;3.40;;;24.80;74.60;;;;;;10437329;28;20270;-79
2022/07/26 02:50:25;;;;;;;3.83;3.63;;;24.80;74.80;;;;;;10448252;28;20244;-78
2022/07/26 02:55:28;;;;;;;4.30;4.00;;;24.80;75.10;;;;;;10452363;28;20284;-78
2022/07/26 03:00:30;;;;;;;4.20;3.90;;;24.80;74.90;;;;;;10449600;28;20643;-77
2022/07/26 03:05:33;;;;;;;4.30;4.00;;;24.70;76.20;;;;;;10451436;28;20224;-80
2022/07/26 03:10:37;;;;;;;4.20;3.90;;;24.70;75.80;;;;;;10458939;28;20217;-80
2022/07/26 03:15:39;;;;;;;3.43;3.33;;;24.60;75.30;;;;;;10457241;28;20701;-81
2022/07/26 03:20:41;;;;;;;3.73;3.63;;;24.60;75.30;;;;;;10457844;28;20287;-81
2022/07/26 03:25:45;;;;;;;3.83;3.73;;;24.60;76.40;;;;;;10451779;28;20202;-77
2022/07/26 03:30:47;;;;;;;4.00;3.90;;;24.60;75.60;;;;;;10447933;28;20744;-77
2022/07/26 03:35:49;;;;;;;4.00;3.70;;;24.60;75.00;;;;;;10449985;28;20237;-78
2022/07/26 03:40:52;;;;;;;3.70;3.50;;;24.60;76.00;;;;;;10450790;28;20245;-78
2022/07/26 03:45:54;;;;;;;4.27;3.97;;;24.50;75.50;;;;;;10450321;28;20208;-79
2022/07/26 03:50:56;;;;;;;4.13;3.50;;;24.40;76.00;;;;;;10453551;28;20251;-79
2022/07/26 04:01:20;;;;;;;4.07;3.87;;;24.40;76.20;;;;;;10458003;28;20304;-77
2022/07/26 04:06:22;;;;;;;3.87;3.70;;;24.30;76.90;;;;;;10457920;28;20254;-78
2022/07/26 04:11:25;;;;;;;5.00;4.67;;;24.30;76.10;;;;;;10456134;28;20664;-78
2022/07/26 04:16:28;;;;;;;4.30;4.10;;;24.30;76.80;;;;;;10457043;28;20263;-79
2022/07/26 04:21:30;;;;;;;4.30;4.10;;;24.20;76.00;;;;;;10457705;28;20304;-78
2022/07/26 04:26:33;;;;;;;4.20;3.80;;;24.20;75.00;;;;;;10458422;28;20239;-78
2022/07/26 04:31:35;;;;;;;4.43;4.10;;;24.10;76.20;;;;;;10451313;28;20263;-78
2022/07/26 04:36:37;;;;;;;4.80;4.43;;;23.90;77.00;;;;;;10456294;28;20197;-79
2022/07/26 04:41:41;;;;;;;4.47;4.27;;;23.90;77.70;;;;;;10462171;28;20224;-78
2022/07/26 04:46:43;;;;;;;4.20;4.00;;;23.90;77.10;;;;;;10441074;28;20197;-78
2022/07/26 04:51:45;;;;;;;4.93;4.53;;;23.80;77.40;;;;;;10457249;28;20221;-77
2022/07/26 04:56:48;;;;;;;4.73;4.20;;;23.90;77.30;;;;;;10456333;28;20555;-79
2022/07/26 05:01:51;;;;;;;5.90;5.53;;;23.90;77.20;;;;;;10452555;28;20227;-79
2022/07/26 05:06:53;;;;;;;5.43;5.03;;;24.10;78.00;;;;;;10456470;28;20205;-79
2022/07/26 05:11:57;;;;;;;5.00;4.60;;;24.20;77.10;;;;;;10454330;28;20296;-78
2022/07/26 05:16:59;;;;;;;4.50;4.20;;;24.20;76.70;;;;;;10455194;28;20201;-79
2022/07/26 05:22:01;;;;;;;5.00;4.73;;;24.10;77.10;;;;;;10455184;28;20316;-80
2022/07/26 05:27:05;;;;;;;5.20;4.90;;;24.10;77.90;;;;;;10455021;28;20201;-79
2022/07/26 05:32:07;;;;;;;4.60;4.30;;;24.20;76.70;;;;;;10453737;28;20680;-77
2022/07/26 05:37:09;;;;;;;4.67;4.47;;;24.30;76.70;;;;;;10455341;28;20260;-80
2022/07/26 05:42:13;;;;;;;4.20;4.00;;;24.40;77.80;;;;;;10455689;28;20221;-79
2022/07/26 05:47:15;;;;;;;4.70;4.40;;;24.60;77.70;;;;;;10454780;28;20205;-78
2022/07/26 05:52:17;;;;;;;5.10;4.90;;;24.70;76.30;;;;;;10455824;28;20300;-78
2022/07/26 05:57:20;;;;;;;5.93;4.80;;;24.60;75.70;;;;;;10458513;28;20203;-78
2022/07/26 06:02:22;;;;;;;6.73;4.80;;;24.50;76.00;;;;;;10455873;28;20278;-79
2022/07/26 06:07:24;;;;;;;5.00;4.70;;;24.50;76.00;;;;;;10453399;28;20578;-77
2022/07/26 06:12:28;;;;;;;5.50;5.10;;;24.40;76.10;;;;;;10453982;28;20228;-78
2022/07/26 06:17:30;;;;;;;4.93;4.63;;;24.30;76.50;;;;;;10458341;28;20236;-78
2022/07/26 06:22:32;;;;;;;5.40;5.00;;;24.30;76.20;;;;;;10458444;28;20294;-79
2022/07/26 06:27:36;;;;;;;5.50;5.10;;;24.30;73.80;;;;;;10457867;28;20284;-78
2022/07/26 06:32:38;;;;;;;5.00;4.50;;;24.30;72.30;;;;;;10465625;28;20236;-79
2022/07/26 06:37:41;;;;;;;4.73;4.43;;;24.40;72.50;;;;;;10459962;28;20243;-79
2022/07/26 06:42:44;;;;;;;4.80;4.43;;;24.60;68.90;;;;;;10456971;28;20286;-79
2022/07/26 06:47:47;;;;;;;3.90;3.53;;;24.70;70.80;;;;;;10456436;28;20197;-79
2022/07/26 06:52:49;;;;;;;4.97;4.57;;;24.90;68.70;;;;;;10455470;28;20267;-79
2022/07/26 06:57:53;;;;;;;4.20;3.90;;;25.10;66.50;;;;;;10458495;28;20581;-79
2022/07/26 07:02:55;;;;;;;3.90;3.60;;;25.10;66.20;;;;;;10456434;28;20237;-78
2022/07/26 07:07:57;;;;;;;3.93;3.70;;;25.40;64.30;;;;;;10436351;28;20197;-79
2022/07/26 07:13:00;;;;;;;4.13;3.77;;;25.60;62.30;;;;;;10453165;28;20236;-79
2022/07/26 07:18:02;;;;;;;6.67;4.83;;;25.70;61.70;;;;;;10449249;28;20661;-79
2022/07/26 07:23:04;;;;;;;4.50;4.20;;;25.90;61.10;;;;;;10454205;28;20304;-78
2022/07/26 07:28:08;;;;;;;4.10;3.77;;;26.10;59.40;;;;;;10463304;28;20271;-79
2022/07/26 07:33:11;;;;;;;3.77;3.50;;;26.30;59.50;;;;;;10467609;28;20239;-79
2022/07/26 07:38:13;;;;;;;4.10;3.90;;;26.60;59.20;;;;;;10463733;28;20280;-80
2022/07/26 07:43:17;;;;;;;3.70;3.40;;;26.90;58.90;;;;;;10464229;28;20228;-79
2022/07/26 07:48:19;;;;;;;3.30;3.10;;;27.20;57.60;;;;;;10463824;28;20934;-79
2022/07/26 07:53:21;;;;;;;4.07;3.77;;;27.60;56.10;;;;;;10463917;28;20255;-79
2022/07/26 07:58:25;;;;;;;3.90;3.57;;;28.00;56.00;;;;;;10463424;28;20288;-79
2022/07/26 08:03:27;;;;;;;5.20;4.70;;;28.40;55.40;;;;;;10459003;28;20256;-79
2022/07/26 08:08:29;;;;;;;4.10;3.80;;;28.90;55.00;;;;;;10459636;28;20665;-79
2022/07/26 08:13:33;;;;;;;3.90;3.80;;;29.30;54.00;;;;;;10461479;28;20321;-79
2022/07/26 08:18:35;;;;;;;3.60;3.40;;;29.20;53.00;;;;;;10464020;28;20292;-79
2022/07/26 08:23:37;;;;;;;3.77;3.67;;;28.90;52.90;;;;;;10463055;28;20252;-78
2022/07/26 08:28:40;;;;;;;3.73;3.37;;;29.10;52.90;;;;;;10461577;28;20197;-78
2022/07/26 08:33:43;;;;;;;4.07;3.87;;;29.20;53.20;;;;;;10459553;28;20276;-79
2022/07/26 08:38:45;;;;;;;4.23;3.93;;;29.10;53.00;;;;;;10453686;28;20201;-79
2022/07/26 08:43:49;;;;;;;3.77;3.57;;;29.10;52.20;;;;;;10460947;28;20612;-79
2022/07/26 08:48:51;;;;;;;3.70;3.50;;;29.60;52.50;;;;;;10457891;28;20212;-79
2022/07/26 08:53:55;;;;;;;3.53;3.30;;;30.00;51.70;;;;;;10457084;28;20248;-79
2022/07/26 08:58:58;;;;;;;3.50;3.20;;;30.40;50.10;;;;;;10458446;28;20201;-80
2022/07/26 09:04:18;;;;;;;3.87;3.67;;;30.10;49.70;;;;;;10464710;28;20221;-79
2022/07/26 09:09:20;;;;;;;4.43;4.10;;;29.90;50.40;;;;;;10458608;28;20209;-79
2022/07/26 09:14:36;;;;;;;3.50;3.30;;;29.70;50.80;;;;;;10462356;28;20240;-79
2022/07/26 09:19:38;;;;;;;4.00;3.80;;;29.40;50.80;;;;;;10460292;28;20247;-79
2022/07/26 09:24:42;;;;;;;4.03;3.83;;;29.10;50.90;;;;;;10460668;28;20701;-79
2022/07/26 09:29:48;;;;;;;3.97;3.23;;;29.10;51.20;;;;;;10461788;28;20258;-79
2022/07/26 09:34:55;;;;;;;4.57;4.30;;;29.50;49.90;;;;;;10460091;28;20272;-79
2022/07/26 09:39:59;;;;;;;3.97;3.77;;;30.10;50.50;;;;;;10461962;28;20645;-79
2022/07/26 09:45:03;;;;;;;3.83;3.63;;;30.50;48.50;;;;;;10461040;28;20225;-79
2022/07/26 09:50:11;;;;;;;4.20;3.80;;;30.20;49.40;;;;;;10460534;28;20197;-78
2022/07/26 09:55:15;;;;;;;3.70;3.50;;;30.30;49.50;;;;;;10459522;28;20204;-80
2022/07/26 10:00:18;;;;;;;4.27;3.97;;;30.30;49.30;;;;;;10459886;28;20225;-79
2022/07/26 10:05:21;;;;;;;4.63;4.43;;;30.40;49.80;;;;;;10455814;28;20225;-79
2022/07/26 10:10:29;;;;;;;4.20;3.87;;;30.80;49.40;;;;;;10456043;28;20231;-79
2022/07/26 10:15:37;;;;;;;4.20;4.00;;;30.90;48.50;;;;;;10454222;28;20218;-78
2022/07/26 10:20:51;;;;;;;4.83;4.43;;;30.80;49.30;;;;;;10456285;28;20244;-78
2022/07/26 10:25:53;;;;;;;3.83;3.63;;;31.10;48.50;;;;;;10452362;28;20319;-78
2022/07/26 10:31:30;;;;;;;4.30;4.03;;;30.60;49.20;;;;;;10454706;28;20271;-78
2022/07/26 10:36:36;;;;;;;4.47;3.73;;;30.10;50.10;;;;;;10449059;28;20233;-78
2022/07/26 10:41:41;;;;;;;4.57;4.27;;;29.50;51.20;;;;;;10452969;28;20245;-79
2022/07/26 10:47:02;;;;;;;4.67;4.33;;;29.10;51.50;;;;;;10454697;28;20304;-78
2022/07/26 10:52:17;;;;;;;4.43;4.23;;;28.90;52.00;;;;;;10453477;28;20219;-78
2022/07/26 10:57:19;;;;;;;5.10;4.80;;;28.60;52.10;;;;;;10453990;28;20212;-78
2022/07/26 11:02:25;;;;;;;4.47;4.27;;;28.40;51.80;;;;;;10450568;28;20907;-77
2022/07/26 11:07:27;;;;;;;4.30;4.00;;;28.20;51.90;;;;;;10449731;28;20287;-77
2022/07/26 11:12:29;;;;;;;3.40;3.30;;;27.90;52.30;;;;;;10452302;28;20280;-78
2022/07/26 11:17:32;;;;;;;4.63;4.33;;;27.60;53.00;;;;;;10440315;28;20193;-78
2022/07/26 11:22:35;;;;;;;4.70;4.50;;;27.50;52.70;;;;;;10453372;28;20220;-79
2022/07/26 11:27:37;;;;;;;4.80;4.60;;;27.50;52.40;;;;;;10454785;28;20284;-79
2022/07/26 11:32:51;;;;;;;4.30;4.00;;;27.40;52.50;;;;;;10457219;28;20677;-78
2022/07/26 11:37:55;;;;;;;4.33;4.13;;;27.30;52.60;;;;;;10445828;28;20201;-78
2022/07/26 11:42:57;;;;;;;4.80;4.60;;;27.30;52.80;;;;;;10452017;28;20217;-79
2022/07/26 11:48:00;;;;;;;3.90;3.70;;;27.40;53.10;;;;;;10451790;28;20201;-79
2022/07/26 11:53:20;;;;;;;4.80;4.33;;;27.40;53.00;;;;;;10451384;28;20723;-80
2022/07/26 11:58:22;;;;;;;5.83;4.27;;;27.40;51.50;;;;;;10449445;28;20201;-79
2022/07/26 12:03:25;;;;;;;4.27;3.90;;;27.30;51.90;;;;;;10451086;28;20639;-79
2022/07/26 12:08:39;;;;;;;4.73;4.53;;;27.40;52.10;;;;;;10450289;28;20630;-78
2022/07/26 12:13:53;;;;;;;4.03;3.83;;;27.40;52.00;;;;;;10457685;28;20217;-79
2022/07/26 12:18:57;;;;;;;4.50;4.30;;;27.40;51.20;;;;;;10460296;28;20199;-79
2022/07/26 12:23:59;;;;;;;3.30;3.10;;;27.20;51.10;;;;;;10451554;28;20299;-78
2022/07/26 12:29:23;;;;;;;3.90;3.70;;;27.20;51.80;;;;;;10457978;28;20201;-78
2022/07/26 12:34:24;;;;;;;4.40;4.20;;;27.20;50.80;;;;;;10455733;28;20213;-78
2022/07/26 12:39:26;;;;;;;3.37;3.07;;;27.20;51.10;;;;;;10454452;28;20284;-79
2022/07/26 12:44:29;;;;;;;5.00;4.30;;;27.10;51.30;;;;;;10456122;28;20278;-78
2022/07/26 12:49:33;;;;;;;4.23;3.83;;;27.10;50.80;;;;;;10455767;28;20239;-82
2022/07/26 12:54:35;;;;;;;4.40;4.20;;;27.00;50.80;;;;;;10456121;28;20216;-79
2022/07/26 12:59:37;;;;;;;3.50;3.40;;;27.00;51.10;;;;;;10457454;28;20201;-78
2022/07/26 13:04:40;;;;;;;3.90;3.80;;;27.10;50.10;;;;;;10458419;28;20226;-78
2022/07/26 13:09:43;;;;;;;3.90;3.70;;;27.00;51.60;;;;;;10456806;28;20742;-79
2022/07/26 13:14:45;;;;;;;4.27;4.07;;;27.20;50.00;;;;;;10448681;28;20228;-79
2022/07/26 13:19:49;;;;;;;4.60;4.30;;;27.30;49.50;;;;;;10454460;28;20211;-79
2022/07/26 13:24:51;;;;;;;4.70;4.40;;;27.30;49.10;;;;;;10453685;28;20263;-79
2022/07/26 13:29:53;;;;;;;4.17;3.97;;;27.20;50.10;;;;;;10449114;28;20201;-78
2022/07/26 13:34:56;;;;;;;4.60;4.30;;;27.10;48.50;;;;;;10457023;28;20197;-78
2022/07/26 13:39:59;;;;;;;3.17;3.07;;;27.10;49.70;;;;;;10459949;28;20582;-79
2022/07/26 13:45:01;;;;;;;4.73;4.53;;;27.20;50.40;;;;;;10462217;28;20221;-79
2022/07/26 13:50:05;;;;;;;3.80;3.60;;;27.10;49.30;;;;;;10459645;28;20201;-78
2022/07/26 13:55:08;;;;;;;4.27;4.00;;;27.20;50.00;;;;;;10454978;28;20270;-78
2022/07/26 14:00:14;;;;;;;3.90;3.50;;;27.50;48.40;;;;;;10454653;28;20237;-77
2022/07/26 14:05:17;;;;;;;3.63;3.43;;;27.50;48.90;;;;;;10454870;28;20860;-78
2022/07/26 14:10:20;;;;;;;3.80;3.60;;;27.60;48.10;;;;;;10453171;28;20624;-79
2022/07/26 14:15:23;;;;;;;4.00;3.80;;;27.50;49.30;;;;;;10448953;28;20193;-78
2022/07/26 14:20:27;;;;;;;3.80;3.70;;;27.70;48.00;;;;;;10453764;28;20279;-79
2022/07/26 14:25:29;;;;;;;4.70;4.50;;;27.70;48.10;;;;;;10453704;28;20267;-78
2022/07/26 14:30:31;;;;;;;5.10;4.23;;;27.80;49.80;;;;;;10457046;28;20666;-78
2022/07/26 14:35:35;;;;;;;3.73;3.43;;;27.80;47.90;;;;;;10453698;28;20189;-77
2022/07/26 14:40:37;;;;;;;3.50;3.40;;;27.80;48.40;;;;;;10456090;28;20255;-78
2022/07/26 14:45:46;;;;;;;3.60;3.50;;;27.70;48.30;;;;;;10457040;28;20275;-79
2022/07/26 14:50:50;;;;;;;3.73;3.53;;;27.70;47.90;;;;;;10461060;28;20216;-79
2022/07/26 14:55:53;;;;;;;2.93;2.83;;;27.70;48.50;;;;;;10461696;28;20223;-79
2022/07/26 15:00:56;;;;;;;3.90;3.60;;;27.70;47.70;;;;;;10463646;28;20845;-79
2022/07/26 15:05:59;;;;;;;3.30;3.20;;;27.80;47.70;;;;;;10460251;28;20255;-78
2022/07/26 15:11:04;;;;;;;2.73;2.57;;;27.80;48.00;;;;;;10460107;28;20271;-80
2022/07/26 15:16:06;;;;;;;4.00;3.80;;;27.80;47.50;;;;;;10459083;28;20203;-78
2022/07/26 15:21:09;;;;;;;3.33;3.20;;;27.90;48.20;;;;;;10459610;28;20228;-78
2022/07/26 15:26:11;;;;;;;3.47;3.27;;;27.90;47.50;;;;;;10456515;28;20813;-79
2022/07/26 15:31:13;;;;;;;3.60;3.50;;;27.80;47.10;;;;;;10456702;28;20217;-79
2022/07/26 15:36:17;;;;;;;3.80;3.50;;;27.70;48.00;;;;;;10459037;28;20201;-81
2022/07/26 15:41:21;;;;;;;3.07;2.90;;;27.50;49.10;;;;;;10462916;28;20753;-80
2022/07/26 15:46:23;;;;;;;3.80;3.60;;;27.50;47.20;;;;;;10462766;28;20221;-80
2022/07/26 15:51:26;;;;;;;3.90;3.70;;;27.50;48.10;;;;;;10471932;28;20228;-79
2022/07/26 15:56:29;;;;;;;3.73;3.63;;;27.60;50.60;;;;;;10468235;28;20235;-81
2022/07/26 16:01:31;;;;;;;3.27;3.17;;;27.70;48.20;;;;;;10466795;28;20230;-81
2022/07/26 16:06:35;;;;;;;3.90;3.60;;;27.70;48.50;;;;;;10468989;28;20217;-79
2022/07/26 16:11:37;;;;;;;3.03;2.93;;;27.70;49.40;;;;;;10469603;28;20220;-78
2022/07/26 16:16:39;;;;;;;3.33;3.13;;;27.60;48.60;;;;;;10459405;28;20224;-78
2022/07/26 16:21:43;;;;;;;3.63;3.53;;;27.50;51.20;;;;;;10458748;28;20225;-79
2022/07/26 16:26:45;;;;;;;3.80;3.60;;;27.40;50.70;;;;;;10440890;28;20267;-79
2022/07/26 16:31:47;;;;;;;3.47;3.37;;;27.20;51.90;;;;;;10457830;28;20578;-77
2022/07/26 16:36:51;;;;;;;3.20;2.93;;;27.10;51.10;;;;;;10447326;28;20376;-79
2022/07/26 16:41:53;;;;;;;3.50;3.30;;;27.10;52.30;;;;;;10456476;28;20288;-78
2022/07/26 16:46:56;;;;;;;4.20;3.90;;;27.10;50.00;;;;;;10455771;28;20249;-77
2022/07/26 16:51:59;;;;;;;3.40;3.00;;;27.10;50.90;;;;;;10456809;28;20225;-79
2022/07/26 16:57:01;;;;;;;3.07;2.97;;;27.10;51.00;;;;;;10455747;28;20276;-78
2022/07/26 17:02:04;;;;;;;3.47;3.27;;;27.10;51.30;;;;;;10458674;28;20229;-78
2022/07/26 17:07:07;;;;;;;3.40;3.20;;;27.10;50.30;;;;;;10455708;28;20279;-80
2022/07/26 17:12:09;;;;;;;2.93;2.83;;;27.10;50.60;;;;;;10456226;28;20248;-79
2022/07/26 17:17:11;;;;;;;2.90;2.70;;;27.10;50.10;;;;;;10455304;28;20185;-80
2022/07/26 17:22:15;;;;;;;4.10;3.90;;;27.00;50.40;;;;;;10455958;28;20220;-79
2022/07/26 17:27:17;;;;;;;3.57;3.37;;;27.00;51.00;;;;;;10448466;28;20696;-78
2022/07/26 17:32:19;;;;;;;3.37;3.07;;;26.80;51.70;;;;;;10455087;28;20221;-78
2022/07/26 17:37:23;;;;;;;4.23;3.83;;;26.70;51.20;;;;;;10455198;28;20186;-79
2022/07/26 17:42:25;;;;;;;3.23;3.13;;;26.60;50.80;;;;;;10449961;28;20704;-77
2022/07/26 17:47:27;;;;;;;4.33;4.10;;;26.50;51.40;;;;;;10452803;28;20213;-79
2022/07/26 17:52:30;;;;;;;3.77;3.60;;;26.40;50.60;;;;;;10460688;28;20217;-81
2022/07/26 17:57:33;;;;;;;3.63;3.43;;;26.40;52.10;;;;;;10462568;28;20358;-80
2022/07/26 18:02:35;;;;;;;3.40;3.20;;;26.30;51.30;;;;;;10463183;28;20236;-78
2022/07/26 18:07:39;;;;;;;3.80;3.53;;;26.20;51.30;;;;;;10468260;28;20241;-80
2022/07/26 18:12:41;;;;;;;5.83;3.47;;;26.20;51.60;;;;;;10454213;28;20217;-80
2022/07/26 18:17:46;;;;;;;3.43;3.23;;;26.20;52.60;;;;;;10459164;28;20304;-80
2022/07/26 18:22:49;;;;;;;5.53;3.67;;;26.10;52.50;;;;;;10458310;28;20300;-81
2022/07/26 18:27:52;;;;;;;3.57;2.97;;;26.10;52.30;;;;;;10459821;28;20473;-81
2022/07/26 18:32:54;;;;;;;3.87;3.67;;;26.00;53.00;;;;;;10454017;28;20309;-78
2022/07/26 18:37:58;;;;;;;3.87;3.67;;;25.90;54.10;;;;;;10451680;28;20220;-79
2022/07/26 18:43:00;;;;;;;4.40;4.10;;;25.90;53.10;;;;;;10429442;28;20227;-79
2022/07/26 18:48:02;;;;;;;4.63;4.40;;;25.80;52.80;;;;;;10453571;28;20209;-80
2022/07/26 18:53:06;;;;;;;6.20;5.80;;;25.80;54.20;;;;;;10458935;28;20245;-79
2022/07/26 18:58:08;;;;;;;4.53;4.20;;;25.70;53.40;;;;;;10459971;28;20236;-80
2022/07/26 19:03:10;;;;;;;4.50;4.30;;;25.70;57.70;;;;;;10459605;28;20236;-79
2022/07/26 19:08:13;;;;;;;4.37;4.03;;;25.70;54.20;;;;;;10459764;28;20663;-78
2022/07/26 19:13:15;;;;;;;3.50;3.30;;;25.60;54.50;;;;;;10449464;28;20273;-79
2022/07/26 19:18:17;;;;;;;4.03;3.80;;;25.60;56.20;;;;;;10443079;28;20245;-78
2022/07/26 19:23:21;;;;;;;4.80;4.50;;;25.60;55.00;;;;;;10462708;28;20221;-78
2022/07/26 19:28:23;;;;;;;3.77;3.57;;;25.60;56.30;;;;;;10462249;28;20225;-78
2022/07/26 19:33:25;;;;;;;4.73;4.40;;;25.60;57.30;;;;;;10457330;28;20229;-78
2022/07/26 19:38:34;;;;;;;5.13;4.83;;;25.50;57.50;;;;;;10451778;28;20201;-79
2022/07/26 19:43:36;;;;;;;6.80;4.20;;;25.50;55.60;;;;;;10462844;28;20240;-79
2022/07/26 19:48:38;;;;;;;3.87;3.67;;;25.50;57.60;;;;;;10465661;28;20198;-79
2022/07/26 19:53:43;;;;;;;4.43;4.13;;;25.40;58.00;;;;;;10447156;28;20245;-79
2022/07/26 19:58:46;;;;;;;3.30;3.20;;;25.40;58.10;;;;;;10469164;28;20204;-79
2022/07/26 20:03:48;;;;;;;3.70;3.50;;;25.40;56.90;;;;;;10464219;28;20229;-77
2022/07/26 20:09:27;;;;;;;6.33;4.37;;;25.40;57.20;;;;;;10455799;28;20209;-78
2022/07/26 20:14:30;;;;;;;4.00;3.80;;;25.40;58.40;;;;;;10436902;28;20217;-80
2022/07/26 20:19:32;;;;;;;4.33;4.13;;;25.30;57.70;;;;;;10465089;28;20189;-79
2022/07/26 20:24:41;;;;;;;4.00;3.73;;;25.30;58.30;;;;;;10465672;28;20221;-79
2022/07/26 20:29:43;;;;;;;4.23;3.60;;;25.20;59.60;;;;;;10464731;28;20205;-79
2022/07/26 20:34:45;;;;;;;3.90;3.60;;;25.10;59.90;;;;;;10455219;28;20227;-79
2022/07/26 20:39:48;;;;;;;5.00;4.33;;;25.10;58.10;;;;;;10456150;28;20362;-79
2022/07/26 20:44:51;;;;;;;4.90;4.50;;;25.00;57.90;;;;;;10460105;28;20299;-78
2022/07/26 20:49:53;;;;;;;4.37;4.10;;;24.80;58.00;;;;;;10443401;28;20208;-77
2022/07/26 20:54:57;;;;;;;6.03;3.93;;;24.80;58.00;;;;;;10457340;28;21048;-79
2022/07/26 21:00:00;;;;;;;3.93;3.73;;;24.60;58.50;;;;;;10450538;28;20229;-79
2022/07/26 21:05:09;;;;;;;5.50;3.80;;;24.40;58.70;;;;;;10456934;28;20937;-79
2022/07/26 21:10:15;;;;;;;4.90;4.60;;;24.30;58.70;;;;;;10459198;28;20274;-79
2022/07/26 21:15:17;;;;;;;4.60;4.20;;;24.10;59.40;;;;;;10458582;28;20223;-79
2022/07/26 21:20:22;;;;;;;7.93;3.97;;;24.00;60.20;;;;;;10456856;28;20252;-79
2022/07/26 21:25:25;;;;;;;5.90;3.83;;;24.00;60.60;;;;;;10448208;28;20283;-78
2022/07/26 21:30:28;;;;;;;4.30;4.00;;;23.90;61.40;;;;;;10454113;28;20221;-79
2022/07/26 21:35:30;;;;;;;3.60;3.50;;;23.90;59.90;;;;;;10439326;28;20202;-79
2022/07/26 21:40:34;;;;;;;4.60;4.40;;;23.90;61.10;;;;;;10429712;28;20236;-80
2022/07/26 21:45:36;;;;;;;3.80;3.60;;;23.90;60.90;;;;;;10455142;28;20657;-79
2022/07/26 21:50:38;;;;;;;4.60;4.07;;;23.80;60.30;;;;;;10444810;28;20236;-79
2022/07/26 21:55:41;;;;;;;4.60;4.40;;;23.70;60.40;;;;;;10450344;28;20576;-80
2022/07/26 22:00:43;;;;;;;3.97;3.77;;;23.60;60.20;;;;;;10457180;28;20229;-77
2022/07/26 22:05:45;;;;;;;4.37;4.10;;;23.50;61.30;;;;;;10461475;28;20231;-78
2022/07/26 22:10:49;;;;;;;4.23;3.93;;;23.50;61.50;;;;;;10452705;28;20225;-79
2022/07/26 22:15:51;;;;;;;4.23;4.03;;;23.50;60.90;;;;;;10454538;28;20276;-80
2022/07/26 22:20:55;;;;;;;4.57;4.30;;;23.40;61.80;;;;;;10458655;28;20243;-77
2022/07/26 22:26:00;;;;;;;4.83;4.50;;;23.30;62.50;;;;;;10454487;28;20248;-79
2022/07/26 22:31:02;;;;;;;3.90;3.70;;;23.30;61.20;;;;;;10454374;28;20352;-79
2022/07/26 22:36:05;;;;;;;4.50;3.97;;;23.30;61.00;;;;;;10450929;28;20240;-79
2022/07/26 22:41:08;;;;;;;4.33;4.10;;;23.20;61.50;;;;;;10453465;28;20225;-77
2022/07/26 22:46:11;;;;;;;5.30;5.03;;;23.20;61.80;;;;;;10442528;28;20853;-78
2022/07/26 22:51:13;;;;;;;4.93;4.63;;;23.20;62.10;;;;;;10441016;28;20225;-78
2022/07/26 22:56:16;;;;;;;4.30;4.10;;;23.20;62.70;;;;;;10444041;28;20201;-79
2022/07/26 23:01:18;;;;;;;4.57;4.27;;;23.20;62.60;;;;;;10445763;28;20283;-77
2022/07/26 23:06:20;;;;;;;4.37;3.80;;;23.20;62.70;;;;;;10447341;28;20221;-78
2022/07/26 23:11:24;;;;;;;4.17;3.70;;;23.10;62.60;;;;;;10443436;28;20228;-79
2022/07/26 23:16:26;;;;;;;5.00;3.43;;;23.10;62.70;;;;;;10451382;28;20268;-78
2022/07/26 23:21:28;;;;;;;3.30;3.20;;;23.10;63.80;;;;;;10446124;28;20593;-77
2022/07/26 23:26:32;;;;;;;3.70;3.50;;;23.00;62.60;;;;;;10445324;28;20239;-79
2022/07/26 23:31:34;;;;;;;3.43;3.33;;;23.10;63.80;;;;;;10445402;28;20224;-80
2022/07/26 23:36:36;;;;;;;4.10;3.80;;;23.10;63.90;;;;;;10449660;28;20215;-78
2022/07/26 23:41:39;;;;;;;3.93;3.63;;;23.20;63.60;;;;;;10454579;28;20228;-79
2022/07/26 23:46:42;;;;;;;4.40;4.07;;;23.30;63.80;;;;;;10454302;28;20224;-80
2022/07/26 23:51:44;;;;;;;3.60;3.50;;;23.30;61.70;;;;;;10438000;28;20305;-79
2022/07/26 23:56:47;;;;;;;3.57;3.37;;;23.30;62.10;;;;;;10456422;28;20225;-79
